Time;durP1;ratioP1;P1;durP2;ratioP2;P2;SDS_P1;SDS_P2;PMS_P1;PMS_P2;Temp;Humidity;BMP_temperature;BMP_pressure;BME280_temperature;BME280_humidity;BME280_pressure;Samples;Min_cycle;Max_cycle;Signal;HPM_P1;HPM_P2
2020/07/24 00:02:24;;;;;;;9.8;8.5;;;;;;;18.71;100;955.481;;;;
2020/07/24 00:04:50;;;;;;;10.1;8.8;;;;;;;18.76;100;955.4683;;;;
2020/07/24 00:07:16;;;;;;;10.2;8.1;;;;;;;18.75;100;955.4492;;;;
2020/07/24 00:09:46;;;;;;;11.7;8.6;;;;;;;18.7;100;955.4433;;;;
2020/07/24 00:12:14;;;;;;;10.6;8.3;;;;;;;18.82;100;955.4331;;;;
2020/07/24 00:14:39;;;;;;;8.6;7.6;;;;;;;18.84;100;955.4333;;;;
2020/07/24 00:17:05;;;;;;;9.9;7.9;;;;;;;18.76;100;955.4128;;;;
2020/07/24 00:19:30;;;;;;;9.8;8.7;;;;;;;18.58;100;955.3475;;;;
2020/07/24 00:21:55;;;;;;;10.4;8.9;;;;;;;18.55;100;955.3142;;;;
2020/07/24 00:24:21;;;;;;;9.9;8.8;;;;;;;18.34;100;955.2859;;;;
2020/07/24 00:26:47;;;;;;;9.3;8.4;;;;;;;18.4;100;955.2278;;;;
2020/07/24 00:29:12;;;;;;;8.9;7.4;;;;;;;18.5;100;955.259;;;;
2020/07/24 00:31:38;;;;;;;9.8;7.5;;;;;;;18.48;100;955.2245;;;;
2020/07/24 00:34:03;;;;;;;10.2;8;;;;;;;18.51;100;955.1959;;;;
2020/07/24 00:36:28;;;;;;;10;7.6;;;;;;;18.56;100;955.1967;;;;
2020/07/24 00:38:55;;;;;;;8.3;7.4;;;;;;;18.59;100;955.2011;;;;
2020/07/24 00:41:20;;;;;;;8;7.2;;;;;;;18.6;100;955.2307;;;;
2020/07/24 00:43:47;;;;;;;8.8;7.9;;;;;;;18.58;100;955.2329;;;;
2020/07/24 00:46:12;;;;;;;8.6;7.3;;;;;;;18.54;100;955.2367;;;;
2020/07/24 00:48:38;;;;;;;8.3;7.4;;;;;;;18.44;100;955.2403;;;;
2020/07/24 00:51:03;;;;;;;8;7.2;;;;;;;18.38;100;955.2637;;;;
2020/07/24 00:53:29;;;;;;;8.3;7.3;;;;;;;18.41;100;955.3067;;;;
2020/07/24 00:55:54;;;;;;;10.4;7.6;;;;;;;18.36;100;955.2772;;;;
2020/07/24 00:58:21;;;;;;;8.7;6.9;;;;;;;18.28;100;955.2383;;;;
2020/07/24 01:00:46;;;;;;;8.4;6.9;;;;;;;18.3;100;955.2072;;;;
2020/07/24 01:03:13;;;;;;;7.8;6.6;;;;;;;18.4;100;955.2087;;;;
2020/07/24 01:05:38;;;;;;;7;6.3;;;;;;;18.41;100;955.212;;;;
2020/07/24 01:08:04;;;;;;;8;6.7;;;;;;;18.39;100;955.1717;;;;
2020/07/24 01:10:29;;;;;;;7.2;6.5;;;;;;;18.3;100;955.1791;;;;
2020/07/24 01:12:55;;;;;;;8.7;6.8;;;;;;;18.28;100;955.1707;;;;
2020/07/24 01:15:20;;;;;;;9.6;7;;;;;;;18.31;100;955.1809;;;;
2020/07/24 01:17:50;;;;;;;8.2;6.4;;;;;;;18.35;100;955.1577;;;;
2020/07/24 01:20:15;;;;;;;7.9;6.4;;;;;;;18.46;100;955.1024;;;;
2020/07/24 01:22:40;;;;;;;9.2;6.6;;;;;;;18.51;100;955.0797;;;;
2020/07/24 01:25:05;;;;;;;7.9;6.6;;;;;;;18.59;100;955.0748;;;;
2020/07/24 01:27:33;;;;;;;8.3;7;;;;;;;18.48;100;955.0924;;;;
2020/07/24 01:29:58;;;;;;;9.1;7.1;;;;;;;18.39;100;955.0876;;;;
2020/07/24 01:32:24;;;;;;;9.3;7.5;;;;;;;18.22;100;955.0767;;;;
2020/07/24 01:34:50;;;;;;;7.9;7.1;;;;;;;18.25;100;955.1309;;;;
2020/07/24 01:37:16;;;;;;;10.6;7.5;;;;;;;18.29;100;955.0955;;;;
2020/07/24 01:39:41;;;;;;;8.6;7.1;;;;;;;18.26;100;954.9986;;;;
2020/07/24 01:42:08;;;;;;;7.7;6.6;;;;;;;18.32;100;954.9775;;;;
2020/07/24 01:44:33;;;;;;;10.7;7.2;;;;;;;18.27;100;954.976;;;;
2020/07/24 01:46:59;;;;;;;8.8;7;;;;;;;18.3;100;954.963;;;;
2020/07/24 01:49:24;;;;;;;9.2;7.1;;;;;;;18.27;100;954.9553;;;;
2020/07/24 01:51:51;;;;;;;7.8;7;;;;;;;18.22;100;954.8962;;;;
2020/07/24 01:54:16;;;;;;;8.5;7;;;;;;;18.2;100;954.9272;;;;
2020/07/24 01:56:43;;;;;;;7.9;7.1;;;;;;;18.25;100;954.9379;;;;
2020/07/24 01:59:08;;;;;;;8;6.6;;;;;;;18.12;100;954.8831;;;;
2020/07/24 02:01:36;;;;;;;9.8;7.1;;;;;;;18.16;100;954.8511;;;;
2020/07/24 02:04:01;;;;;;;9;7.1;;;;;;;18.05;100;954.8499;;;;
2020/07/24 02:06:29;;;;;;;8.7;7.6;;;;;;;18.13;100;954.8403;;;;
2020/07/24 02:08:54;;;;;;;8;7.1;;;;;;;18.12;100;954.8574;;;;
2020/07/24 02:11:20;;;;;;;7.6;6.8;;;;;;;18.12;100;954.8394;;;;
2020/07/24 02:13:45;;;;;;;9.3;7.3;;;;;;;18.02;100;954.8594;;;;
2020/07/24 02:16:10;;;;;;;7.9;7.1;;;;;;;17.99;100;954.832;;;;
2020/07/24 02:18:37;;;;;;;8.5;6.6;;;;;;;18.09;100;954.8359;;;;
2020/07/24 02:21:02;;;;;;;9.9;7.2;;;;;;;18.08;100;954.8409;;;;
2020/07/24 02:23:28;;;;;;;7.7;6.9;;;;;;;17.97;100;954.8272;;;;
2020/07/24 02:25:53;;;;;;;8.8;7.1;;;;;;;17.98;100;954.7801;;;;
2020/07/24 02:28:19;;;;;;;10.6;7.1;;;;;;;17.9;100;954.7838;;;;
2020/07/24 02:30:44;;;;;;;11.5;7;;;;;;;17.91;100;954.787;;;;
2020/07/24 02:33:11;;;;;;;10.5;7.5;;;;;;;17.71;100;954.8256;;;;
2020/07/24 02:35:36;;;;;;;8.9;7.4;;;;;;;17.58;100;954.7363;;;;
2020/07/24 02:38:04;;;;;;;10.7;6.9;;;;;;;17.71;100;954.7491;;;;
2020/07/24 02:40:29;;;;;;;9.6;7.4;;;;;;;17.64;100;954.6981;;;;
2020/07/24 02:42:56;;;;;;;7.9;7.1;;;;;;;17.65;100;954.7171;;;;
2020/07/24 02:45:28;;;;;;;10.8;7.3;;;;;;;17.76;100;954.7374;;;;
2020/07/24 02:47:57;;;;;;;7.3;6.5;;;;;;;17.81;100;954.7244;;;;
2020/07/24 02:50:22;;;;;;;8.2;6.7;;;;;;;17.74;100;954.6883;;;;
2020/07/24 02:52:49;;;;;;;6.8;6.1;;;;;;;17.78;100;954.6509;;;;
2020/07/24 02:55:13;;;;;;;6.7;6;;;;;;;17.89;100;954.6085;;;;
2020/07/24 02:57:39;;;;;;;7.3;6.4;;;;;;;17.74;100;954.6586;;;;
2020/07/24 03:00:04;;;;;;;8.4;6.5;;;;;;;17.69;100;954.6471;;;;
2020/07/24 03:02:30;;;;;;;7.9;6.4;;;;;;;17.61;100;954.6542;;;;
2020/07/24 03:04:55;;;;;;;10.2;6.9;;;;;;;17.5;100;954.6906;;;;
2020/07/24 03:07:21;;;;;;;7.1;6.1;;;;;;;17.65;100;954.6446;;;;
2020/07/24 03:09:46;;;;;;;9.1;6.3;;;;;;;17.75;100;954.647;;;;
2020/07/24 03:12:12;;;;;;;10.8;6.3;;;;;;;17.77;100;954.6912;;;;
2020/07/24 03:14:38;;;;;;;6.9;5.9;;;;;;;17.68;100;954.6234;;;;
2020/07/24 03:17:03;;;;;;;6.9;6.2;;;;;;;17.75;100;954.6445;;;;
2020/07/24 03:19:29;;;;;;;8.4;6.2;;;;;;;17.71;100;954.6624;;;;
2020/07/24 03:21:54;;;;;;;8.3;6;;;;;;;17.73;100;954.7048;;;;
2020/07/24 03:24:20;;;;;;;7.6;6.3;;;;;;;17.73;100;954.7328;;;;
2020/07/24 03:26:45;;;;;;;8.7;6.6;;;;;;;17.7;100;954.6962;;;;
2020/07/24 03:29:14;;;;;;;10.2;6.3;;;;;;;17.71;100;954.7397;;;;
2020/07/24 03:31:40;;;;;;;10.4;6.8;;;;;;;17.59;100;954.7238;;;;
2020/07/24 03:34:06;;;;;;;7.2;6.1;;;;;;;17.64;100;954.6791;;;;
2020/07/24 03:36:31;;;;;;;9.9;7.6;;;;;;;17.23;100;954.7211;;;;
2020/07/24 03:38:57;;;;;;;10.3;7;;;;;;;17.14;100;954.7511;;;;
2020/07/24 03:41:22;;;;;;;11.8;7.1;;;;;;;17.21;100;954.7576;;;;
2020/07/24 03:43:48;;;;;;;9.4;6.4;;;;;;;17.15;100;954.7881;;;;
2020/07/24 03:46:13;;;;;;;10.1;6.7;;;;;;;17.3;100;954.7539;;;;
2020/07/24 03:48:40;;;;;;;9.4;6.2;;;;;;;17.32;100;954.728;;;;
2020/07/24 03:51:05;;;;;;;6.9;5.7;;;;;;;17.43;100;954.7336;;;;
2020/07/24 03:53:32;;;;;;;8.3;5.8;;;;;;;17.51;100;954.7498;;;;
2020/07/24 03:55:57;;;;;;;9.1;6.3;;;;;;;17.28;100;954.7408;;;;
2020/07/24 03:58:24;;;;;;;11.8;6.1;;;;;;;17.34;100;954.7736;;;;
2020/07/24 04:02:28;;;;;;;10.1;6.1;;;;;;;17.21;100;954.7649;;;;
2020/07/24 04:04:53;;;;;;;8.5;6;;;;;;;17.18;100;954.7894;;;;
2020/07/24 04:07:20;;;;;;;7.2;5.7;;;;;;;17.29;100;954.7661;;;;
2020/07/24 04:09:45;;;;;;;7.1;5.6;;;;;;;17.26;100;954.7642;;;;
2020/07/24 04:12:11;;;;;;;10.4;5.9;;;;;;;17.16;100;954.7928;;;;
2020/07/24 04:14:36;;;;;;;7.4;5.7;;;;;;;17.1;100;954.7608;;;;
2020/07/24 04:17:02;;;;;;;8.1;6.3;;;;;;;17.2;100;954.8336;;;;
2020/07/24 04:19:27;;;;;;;8;5.4;;;;;;;17.23;100;954.7861;;;;
2020/07/24 04:21:52;;;;;;;7.2;5.4;;;;;;;17.17;100;954.7155;;;;
2020/07/24 04:24:18;;;;;;;7.7;5;;;;;;;16.99;100;954.7491;;;;
2020/07/24 04:26:42;;;;;;;7.4;5.4;;;;;;;16.96;100;954.7858;;;;
2020/07/24 04:29:07;;;;;;;7.1;5.2;;;;;;;17.15;100;954.7684;;;;
2020/07/24 04:31:33;;;;;;;6.7;5.2;;;;;;;17.27;100;954.7279;;;;
2020/07/24 04:33:58;;;;;;;6.6;4.8;;;;;;;17.3;100;954.7183;;;;
2020/07/24 04:36:23;;;;;;;8.3;5;;;;;;;17.3;100;954.7521;;;;
2020/07/24 04:38:48;;;;;;;7;4.8;;;;;;;17.26;100;954.7438;;;;
2020/07/24 04:41:13;;;;;;;8;4.8;;;;;;;17.29;100;954.6764;;;;
2020/07/24 04:43:38;;;;;;;7.6;5.2;;;;;;;17.37;100;954.7288;;;;
2020/07/24 04:46:05;;;;;;;6.8;4.7;;;;;;;17.38;100;954.7722;;;;
2020/07/24 04:48:30;;;;;;;7.8;5.1;;;;;;;17.5;100;954.8125;;;;
2020/07/24 04:50:56;;;;;;;6.8;4.8;;;;;;;17.5;100;954.7852;;;;
2020/07/24 04:53:21;;;;;;;6.5;4.8;;;;;;;17.46;100;954.7274;;;;
2020/07/24 04:55:47;;;;;;;5.6;4.9;;;;;;;17.49;100;954.7879;;;;
2020/07/24 04:58:12;;;;;;;8.1;4.8;;;;;;;17.49;100;954.829;;;;
2020/07/24 05:00:39;;;;;;;8;4.8;;;;;;;17.32;100;954.7544;;;;
2020/07/24 05:03:04;;;;;;;9.3;4.9;;;;;;;17.55;100;954.8;;;;
2020/07/24 05:05:30;;;;;;;6.6;4.9;;;;;;;17.5;100;954.8192;;;;
2020/07/24 05:07:55;;;;;;;7.1;4.4;;;;;;;17.6;100;954.8011;;;;
2020/07/24 05:10:22;;;;;;;6.4;4.4;;;;;;;17.65;100;954.8051;;;;
2020/07/24 05:12:47;;;;;;;6.9;4.4;;;;;;;17.64;100;954.7756;;;;
2020/07/24 05:15:13;;;;;;;5.5;4.4;;;;;;;17.65;100;954.76;;;;
2020/07/24 05:17:38;;;;;;;9;4.6;;;;;;;17.62;100;954.7489;;;;
2020/07/24 05:20:04;;;;;;;7.7;4.2;;;;;;;17.69;100;954.7542;;;;
2020/07/24 05:22:29;;;;;;;6.6;4.6;;;;;;;17.6;100;954.7558;;;;
2020/07/24 05:24:55;;;;;;;7.3;4.6;;;;;;;17.76;100;954.7538;;;;
2020/07/24 05:27:20;;;;;;;8.5;6.1;;;;;;;17.91;100;954.7194;;;;
2020/07/24 05:29:46;;;;;;;10.8;6.5;;;;;;;17.59;100;954.7475;;;;
2020/07/24 05:32:11;;;;;;;10.3;6.5;;;;;;;17.74;100;954.7617;;;;
2020/07/24 05:34:37;;;;;;;10;6.2;;;;;;;17.74;100;954.7377;;;;
2020/07/24 05:37:02;;;;;;;7.8;4.8;;;;;;;17.73;100;954.7411;;;;
2020/07/24 05:39:27;;;;;;;11.7;5.2;;;;;;;17.77;100;954.8105;;;;
2020/07/24 05:41:52;;;;;;;8.2;4.6;;;;;;;17.8;100;954.8328;;;;
2020/07/24 05:44:17;;;;;;;9.3;4.6;;;;;;;17.78;100;954.8347;;;;
2020/07/24 05:46:42;;;;;;;8.7;5.3;;;;;;;17.87;100;954.8348;;;;
2020/07/24 05:49:07;;;;;;;8.6;5.9;;;;;;;17.91;100;954.8924;;;;
2020/07/24 05:51:34;;;;;;;7.2;4.6;;;;;;;17.92;100;954.8635;;;;
2020/07/24 05:53:59;;;;;;;7.9;4.6;;;;;;;17.87;100;954.8794;;;;
2020/07/24 05:56:25;;;;;;;6.6;4.7;;;;;;;17.86;100;954.8975;;;;
2020/07/24 05:58:50;;;;;;;6.3;4.3;;;;;;;17.96;100;954.9172;;;;
2020/07/24 06:01:16;;;;;;;8.2;4.2;;;;;;;17.92;100;954.8744;;;;
2020/07/24 06:03:41;;;;;;;7.4;3.7;;;;;;;18;100;954.9199;;;;
2020/07/24 06:06:07;;;;;;;8.5;4.2;;;;;;;17.97;100;954.946;;;;
2020/07/24 06:08:32;;;;;;;8.9;4.1;;;;;;;17.93;100;954.9705;;;;
2020/07/24 06:10:58;;;;;;;7.6;3.8;;;;;;;18.08;100;955.0069;;;;
2020/07/24 06:13:24;;;;;;;6.7;3.6;;;;;;;18.13;100;954.9992;;;;
2020/07/24 06:15:50;;;;;;;7.9;3.6;;;;;;;18.32;100;955.0131;;;;
2020/07/24 06:18:15;;;;;;;6.6;3.6;;;;;;;18.37;96.96777;954.9743;;;;
2020/07/24 06:20:40;;;;;;;4.6;3.1;;;;;;;18.54;97.75586;955.0294;;;;
2020/07/24 06:23:05;;;;;;;6.6;3.6;;;;;;;18.75;96.30078;955.0818;;;;
2020/07/24 06:25:30;;;;;;;6.6;3.9;;;;;;;18.63;95.8623;955.1417;;;;
2020/07/24 06:27:55;;;;;;;7.6;3.3;;;;;;;18.87;96.21094;955.0826;;;;
2020/07/24 06:30:20;;;;;;;5.4;3.4;;;;;;;19.08;92.04199;955.0798;;;;
2020/07/24 06:32:46;;;;;;;6.2;3.4;;;;;;;19.11;91.12109;955.0447;;;;
2020/07/24 06:35:11;;;;;;;5.9;3.3;;;;;;;19.22;90.4873;955.0645;;;;
2020/07/24 06:37:37;;;;;;;5.6;3.1;;;;;;;19.33;89.06543;955.0524;;;;
2020/07/24 06:40:02;;;;;;;5.4;3.2;;;;;;;19.42;89.45898;955.0792;;;;
2020/07/24 06:42:28;;;;;;;4.8;3.1;;;;;;;19.39;86.96387;955.0881;;;;
2020/07/24 06:44:54;;;;;;;6;3.2;;;;;;;19.35;84.49902;955.1121;;;;
2020/07/24 06:47:20;;;;;;;5.3;2.9;;;;;;;19.37;86.03125;955.0817;;;;
2020/07/24 06:49:45;;;;;;;5.5;3.1;;;;;;;19.39;87.45703;955.1343;;;;
2020/07/24 06:52:10;;;;;;;8.7;3.5;;;;;;;19.45;88.0791;955.1456;;;;
2020/07/24 06:54:36;;;;;;;4;3.1;;;;;;;19.51;86.23535;955.1838;;;;
2020/07/24 06:57:00;;;;;;;9.8;2.8;;;;;;;19.6;86.81641;955.1369;;;;
2020/07/24 06:59:26;;;;;;;3.4;2.6;;;;;;;19.59;83.97168;955.2255;;;;
2020/07/24 07:01:51;;;;;;;5.1;2.6;;;;;;;19.6;80.54199;955.2211;;;;
2020/07/24 07:04:17;;;;;;;8.4;2.7;;;;;;;19.72;80.10645;955.1873;;;;
2020/07/24 07:06:42;;;;;;;4.7;2.9;;;;;;;19.7;80.51367;955.211;;;;
2020/07/24 07:09:09;;;;;;;4.9;2.7;;;;;;;19.78;82.4209;955.2266;;;;
2020/07/24 07:11:34;;;;;;;5.2;2.8;;;;;;;19.66;82.7627;955.2888;;;;
2020/07/24 07:14:00;;;;;;;4.1;3;;;;;;;19.66;85.33691;955.3185;;;;
2020/07/24 07:16:25;;;;;;;5.7;3.5;;;;;;;19.75;86.43555;955.3438;;;;
2020/07/24 07:18:51;;;;;;;10.1;3.7;;;;;;;19.47;86.7666;955.3928;;;;
2020/07/24 07:21:17;;;;;;;5.1;3.5;;;;;;;19.61;88.47461;955.4069;;;;
2020/07/24 07:23:42;;;;;;;4.8;3.2;;;;;;;19.81;87.62305;955.4152;;;;
2020/07/24 07:26:07;;;;;;;8;3.7;;;;;;;19.73;85.28027;955.4622;;;;
2020/07/24 07:28:34;;;;;;;5.8;3.5;;;;;;;19.75;85.18945;955.415;;;;
2020/07/24 07:30:59;;;;;;;6.1;3.1;;;;;;;19.87;84.78711;955.3956;;;;
2020/07/24 07:33:25;;;;;;;5.3;3.3;;;;;;;20.04;83.73926;955.3315;;;;
2020/07/24 07:35:50;;;;;;;6.2;3.2;;;;;;;20.2;83.73438;955.2664;;;;
2020/07/24 07:38:16;;;;;;;5;3;;;;;;;20.3;82.74121;955.3128;;;;
2020/07/24 07:40:45;;;;;;;5.7;3;;;;;;;20.41;81.60742;955.3331;;;;
2020/07/24 07:43:12;;;;;;;6.1;2.9;;;;;;;20.51;80.4502;955.3394;;;;
2020/07/24 07:45:37;;;;;;;4.6;2.9;;;;;;;20.51;77.51855;955.3244;;;;
2020/07/24 07:48:04;;;;;;;6.2;3;;;;;;;20.36;77.78613;955.3831;;;;
2020/07/24 07:50:29;;;;;;;5.3;2.8;;;;;;;20.42;76.66504;955.3865;;;;
2020/07/24 07:52:54;;;;;;;6.9;3.1;;;;;;;20.58;78.82422;955.4141;;;;
2020/07/24 07:55:19;;;;;;;4.3;2.4;;;;;;;20.73;76.77832;955.4141;;;;
2020/07/24 07:57:45;;;;;;;5;2.6;;;;;;;20.76;73.21387;955.5044;;;;
2020/07/24 08:00:13;;;;;;;3.7;2.3;;;;;;;20.77;72.86328;955.5389;;;;
2020/07/24 08:02:38;;;;;;;5.1;2.4;;;;;;;20.76;71.48242;955.5541;;;;
2020/07/24 08:05:03;;;;;;;5.6;2.5;;;;;;;20.81;71.27832;955.5949;;;;
2020/07/24 08:07:28;;;;;;;4.9;2.3;;;;;;;20.87;68.67285;955.6247;;;;
2020/07/24 08:09:53;;;;;;;8.6;2.7;;;;;;;20.91;69.03223;955.6021;;;;
2020/07/24 08:12:19;;;;;;;3.4;2.1;;;;;;;20.92;69.63477;955.6295;;;;
2020/07/24 08:14:45;;;;;;;3.1;2.1;;;;;;;20.99;68.66699;955.715;;;;
2020/07/24 08:17:13;;;;;;;6.2;2.3;;;;;;;21;68.10352;955.6826;;;;
2020/07/24 08:19:39;;;;;;;6.8;2.4;;;;;;;21.1;68.89746;955.7659;;;;
2020/07/24 08:22:04;;;;;;;6.1;2.3;;;;;;;21.18;67.4834;955.7885;;;;
2020/07/24 08:24:29;;;;;;;5.8;2.6;;;;;;;21.36;66.79102;955.8152;;;;
2020/07/24 08:26:54;;;;;;;4.4;2.4;;;;;;;21.45;66.52148;955.85;;;;
2020/07/24 08:29:19;;;;;;;6.9;2.3;;;;;;;21.54;65.47266;955.8397;;;;
2020/07/24 08:31:44;;;;;;;4.1;1.9;;;;;;;21.66;66.375;955.7957;;;;
2020/07/24 08:34:09;;;;;;;4.9;1.9;;;;;;;21.8;65.5332;955.7795;;;;
2020/07/24 08:36:35;;;;;;;2.9;1.8;;;;;;;21.87;61.74121;955.7659;;;;
2020/07/24 08:39:00;;;;;;;5.6;1.7;;;;;;;22;60.90918;955.7928;;;;
2020/07/24 08:41:26;;;;;;;4.7;1.8;;;;;;;21.98;60.3623;955.7853;;;;
2020/07/24 08:43:51;;;;;;;5.8;1.5;;;;;;;22.15;58.87402;955.7084;;;;
2020/07/24 08:46:17;;;;;;;4.9;2;;;;;;;22.29;59.30566;955.6412;;;;
2020/07/24 08:48:42;;;;;;;3.7;1.9;;;;;;;22.28;60.62988;955.6679;;;;
2020/07/24 08:51:09;;;;;;;3.3;1.6;;;;;;;22.45;60.52148;955.5892;;;;
2020/07/24 08:53:34;;;;;;;3.4;1.6;;;;;;;22.48;59.24805;955.5784;;;;
2020/07/24 08:56:00;;;;;;;5.5;1.7;;;;;;;22.57;57.74707;955.6169;;;;
2020/07/24 08:58:25;;;;;;;3;1.4;;;;;;;22.74;56.67969;955.6417;;;;
2020/07/24 09:00:51;;;;;;;1.6;1.2;;;;;;;22.86;55.84277;955.6227;;;;
2020/07/24 09:03:17;;;;;;;4;1.5;;;;;;;22.96;53.5127;955.6448;;;;
2020/07/24 09:05:44;;;;;;;3.3;1.2;;;;;;;23.05;54.59961;955.684;;;;
2020/07/24 09:08:09;;;;;;;3;1.7;;;;;;;23.03;55.32031;955.6287;;;;
2020/07/24 09:10:37;;;;;;;3.9;1.4;;;;;;;22.97;56.36523;955.6345;;;;
2020/07/24 09:13:02;;;;;;;3.2;1.5;;;;;;;22.95;56.77734;955.5871;;;;
2020/07/24 09:15:27;;;;;;;5.4;1.4;;;;;;;22.98;57.58594;955.5803;;;;
2020/07/24 09:17:52;;;;;;;2.2;1.6;;;;;;;22.99;57.62402;955.5995;;;;
2020/07/24 09:20:20;;;;;;;6.1;1.8;;;;;;;23;57.19824;955.6027;;;;
2020/07/24 09:22:47;;;;;;;5.3;2.3;;;;;;;22.97;58.35547;955.6836;;;;
2020/07/24 09:25:12;;;;;;;3.4;1.7;;;;;;;22.84;55.42676;955.6828;;;;
2020/07/24 09:27:37;;;;;;;4.9;2.2;;;;;;;22.94;55.75879;955.6936;;;;
2020/07/24 09:30:02;;;;;;;2.5;1.4;;;;;;;23.09;56.65332;955.6967;;;;
2020/07/24 09:32:29;;;;;;;4.8;1.4;;;;;;;23.03;55.80566;955.6886;;;;
2020/07/24 09:34:55;;;;;;;4.4;1.6;;;;;;;23.21;56.5625;955.6456;;;;
2020/07/24 09:37:20;;;;;;;3.9;1.5;;;;;;;23.23;54.94141;955.6252;;;;
2020/07/24 09:39:45;;;;;;;3.8;1.5;;;;;;;23.45;59.61523;955.5818;;;;
2020/07/24 09:42:11;;;;;;;4.8;1.7;;;;;;;23.56;57.82813;955.5561;;;;
2020/07/24 09:44:37;;;;;;;2.2;1.2;;;;;;;23.62;54.87207;955.5444;;;;
2020/07/24 09:47:03;;;;;;;3.9;1.4;;;;;;;23.39;56.71484;955.4669;;;;
2020/07/24 09:49:28;;;;;;;4.5;1.2;;;;;;;23.37;56.48828;955.5609;;;;
2020/07/24 09:51:54;;;;;;;4.5;1.2;;;;;;;23.55;53.01367;955.5532;;;;
2020/07/24 09:54:19;;;;;;;2.7;1.1;;;;;;;23.53;53.81738;955.5812;;;;
2020/07/24 09:56:44;;;;;;;3.2;1.4;;;;;;;23.56;54.98242;955.5195;;;;
2020/07/24 09:59:09;;;;;;;2.9;1.2;;;;;;;23.54;53.00098;955.5275;;;;
2020/07/24 10:01:34;;;;;;;2.6;1.4;;;;;;;23.73;51.91895;955.5292;;;;
2020/07/24 10:04:00;;;;;;;3.5;1.3;;;;;;;23.73;51.79004;955.4897;;;;
2020/07/24 10:06:25;;;;;;;4;1.4;;;;;;;23.65;54.56641;955.5175;;;;
2020/07/24 10:08:51;;;;;;;3.1;1.2;;;;;;;23.75;51.4834;955.5306;;;;
2020/07/24 10:11:17;;;;;;;4.2;1.5;;;;;;;23.71;51.40723;955.4717;;;;
2020/07/24 10:13:42;;;;;;;2.3;1.2;;;;;;;23.75;51.04492;955.4774;;;;
2020/07/24 10:16:08;;;;;;;2.2;1.1;;;;;;;23.8;51.05078;955.4428;;;;
2020/07/24 10:18:34;;;;;;;3.1;1.1;;;;;;;23.95;51.7207;955.4975;;;;
2020/07/24 10:20:59;;;;;;;3.3;1;;;;;;;23.71;49.47461;955.4587;;;;
2020/07/24 10:23:24;;;;;;;3.9;1.2;;;;;;;23.82;50.54297;955.4833;;;;
2020/07/24 10:25:49;;;;;;;2;1.2;;;;;;;23.97;51.2002;955.527;;;;
2020/07/24 10:28:14;;;;;;;4.8;1.2;;;;;;;23.97;50.63086;955.4561;;;;
2020/07/24 10:30:39;;;;;;;4.3;1.3;;;;;;;23.99;50.06445;955.5211;;;;
2020/07/24 10:33:04;;;;;;;2.7;1.2;;;;;;;23.98;50.64355;955.5073;;;;
2020/07/24 10:35:56;;;;;;;2.3;1.1;;;;;;;24.32;50.99121;955.4377;;;;
2020/07/24 10:38:21;;;;;;;4.1;1.2;;;;;;;24.23;48.46387;955.4895;;;;
2020/07/24 10:40:46;;;;;;;2.5;1.1;;;;;;;24.26;47.92188;955.4576;;;;
2020/07/24 10:43:11;;;;;;;3.3;1.3;;;;;;;24.51;47.97168;955.4573;;;;
2020/07/24 10:45:36;;;;;;;3.4;1;;;;;;;24.62;48.05566;955.5045;;;;
2020/07/24 10:48:02;;;;;;;3.9;1.6;;;;;;;24.6;48.59961;955.4934;;;;
2020/07/24 10:50:27;;;;;;;4;1.5;;;;;;;24.67;48.20313;955.4822;;;;
2020/07/24 10:52:52;;;;;;;4.2;1.3;;;;;;;24.49;47.30469;955.4374;;;;
2020/07/24 10:55:18;;;;;;;3;1.3;;;;;;;24.49;48.50391;955.4215;;;;
2020/07/24 10:57:44;;;;;;;2.9;1.3;;;;;;;24.68;48.01367;955.3592;;;;
2020/07/24 11:00:11;;;;;;;4.4;1.2;;;;;;;24.8;47.97949;955.3115;;;;
2020/07/24 11:02:36;;;;;;;5.6;1.4;;;;;;;24.64;48.49707;955.3091;;;;
2020/07/24 11:05:01;;;;;;;3.4;1.2;;;;;;;24.88;49.27246;955.3387;;;;
2020/07/24 11:07:27;;;;;;;3.9;1.2;;;;;;;24.87;49.37695;955.3412;;;;
2020/07/24 11:09:53;;;;;;;2.9;1.1;;;;;;;25.13;47.84766;955.3964;;;;
2020/07/24 11:12:18;;;;;;;3.2;1.2;;;;;;;24.92;48.58691;955.3463;;;;
2020/07/24 11:14:44;;;;;;;2.8;1.2;;;;;;;24.81;49.52637;955.3172;;;;
2020/07/24 11:17:09;;;;;;;3.3;1.3;;;;;;;24.8;47.05176;955.2008;;;;
2020/07/24 11:19:35;;;;;;;4;1.6;;;;;;;25;46.7627;955.1944;;;;
2020/07/24 11:22:00;;;;;;;3;1.4;;;;;;;25.04;47.21973;955.2501;;;;
2020/07/24 11:24:29;;;;;;;3.5;1.5;;;;;;;25.08;47.88965;955.3351;;;;
2020/07/24 11:26:54;;;;;;;2.1;1.1;;;;;;;25.13;49.08496;955.2502;;;;
2020/07/24 11:29:19;;;;;;;7.8;1.5;;;;;;;24.97;49.94727;955.2397;;;;
2020/07/24 11:31:44;;;;;;;3;1.7;;;;;;;24.95;48.42285;955.2325;;;;
2020/07/24 11:34:12;;;;;;;4.1;1.7;;;;;;;25.19;50.44824;955.2477;;;;
2020/07/24 11:36:37;;;;;;;3.3;1.3;;;;;;;25.34;49.75098;955.2644;;;;
2020/07/24 11:39:03;;;;;;;5;1.6;;;;;;;25.37;47.47949;955.2997;;;;
2020/07/24 11:41:28;;;;;;;3.3;1.3;;;;;;;25.51;48.9248;955.2797;;;;
2020/07/24 11:43:54;;;;;;;5.5;1.3;;;;;;;25.51;48.55566;955.3224;;;;
2020/07/24 11:46:19;;;;;;;3.8;1.2;;;;;;;25.63;46.84277;955.308;;;;
2020/07/24 11:48:44;;;;;;;3.5;1.2;;;;;;;25.27;48.45801;955.3335;;;;
2020/07/24 11:51:09;;;;;;;5;1.1;;;;;;;25.24;48.38281;955.2722;;;;
2020/07/24 11:53:34;;;;;;;1.8;1.2;;;;;;;25.25;47.74219;955.2216;;;;
2020/07/24 11:55:59;;;;;;;3.8;1.3;;;;;;;25.26;48.64746;955.2053;;;;
2020/07/24 11:58:25;;;;;;;4.3;1.2;;;;;;;25.17;48.31641;955.1852;;;;
2020/07/24 12:00:50;;;;;;;2.3;1.2;;;;;;;25.23;48.23926;955.2254;;;;
2020/07/24 12:03:16;;;;;;;4.3;1.4;;;;;;;24.95;48.05469;955.2098;;;;
2020/07/24 12:05:41;;;;;;;5.1;1.4;;;;;;;25.04;48.68359;955.1674;;;;
2020/07/24 12:08:08;;;;;;;5.1;1.4;;;;;;;25.28;46.76953;955.1864;;;;
2020/07/24 12:10:33;;;;;;;5;1.7;;;;;;;25.54;46.08203;955.1905;;;;
2020/07/24 12:12:59;;;;;;;2.2;1.2;;;;;;;25.6;48.95801;955.1936;;;;
2020/07/24 12:15:24;;;;;;;2.7;1;;;;;;;25.48;43.66992;955.0859;;;;
2020/07/24 12:17:50;;;;;;;3;1.1;;;;;;;25.7;45.12207;955.075;;;;
2020/07/24 12:20:15;;;;;;;2.2;1;;;;;;;25.84;43.46777;955.1172;;;;
2020/07/24 12:22:40;;;;;;;2.4;1;;;;;;;25.39;43.87695;955.1289;;;;
2020/07/24 12:25:05;;;;;;;3.4;1.1;;;;;;;25.32;45.67871;955.1223;;;;
2020/07/24 12:27:30;;;;;;;5.6;1.4;;;;;;;24.94;50.63477;955.1508;;;;
2020/07/24 12:29:56;;;;;;;4.5;1.4;;;;;;;24.7;48.03906;955.1044;;;;
2020/07/24 12:32:20;;;;;;;4.8;1.6;;;;;;;24.68;49.21387;955.0801;;;;
2020/07/24 12:34:51;;;;;;;3.8;1.2;;;;;;;24.56;50.1875;955.0436;;;;
2020/07/24 12:37:16;;;;;;;3.8;1.5;;;;;;;24.6;49.37109;955.0662;;;;
2020/07/24 12:39:41;;;;;;;5.4;1.5;;;;;;;24.4;48.91016;955.1408;;;;
2020/07/24 12:42:07;;;;;;;5.4;1;;;;;;;24.1;49.00781;955.0994;;;;
2020/07/24 12:44:32;;;;;;;5;1.3;;;;;;;23.83;50.22266;955.1215;;;;
2020/07/24 12:46:58;;;;;;;4;1.5;;;;;;;23.98;51.43945;955.1228;;;;
2020/07/24 12:49:23;;;;;;;4.6;1.7;;;;;;;23.68;54.16797;955.1019;;;;
2020/07/24 12:51:50;;;;;;;6.1;1.5;;;;;;;23.51;54.66895;955.1153;;;;
2020/07/24 12:54:15;;;;;;;4.2;1.4;;;;;;;23.49;54.97363;955.0797;;;;
2020/07/24 12:56:40;;;;;;;3;1.4;;;;;;;23.58;55.1748;955.1418;;;;
2020/07/24 12:59:05;;;;;;;3.1;1.3;;;;;;;23.71;53.94629;955.1078;;;;
2020/07/24 13:01:30;;;;;;;3.8;1.4;;;;;;;23.72;53.16406;955.09;;;;
2020/07/24 13:03:55;;;;;;;4;1.4;;;;;;;23.7;52.62891;955.0991;;;;
2020/07/24 13:06:20;;;;;;;2.8;1.2;;;;;;;23.69;52.01074;955.0817;;;;
2020/07/24 13:08:45;;;;;;;2.1;1.3;;;;;;;23.59;52.3418;955.0547;;;;
2020/07/24 13:11:10;;;;;;;3.3;1;;;;;;;23.66;51.41406;955.1012;;;;
2020/07/24 13:13:35;;;;;;;2.7;1.1;;;;;;;23.63;51.82422;955.0608;;;;
2020/07/24 13:16:01;;;;;;;1.8;0.9;;;;;;;23.65;52.37402;955.0489;;;;
2020/07/24 13:18:26;;;;;;;4.3;1.4;;;;;;;23.35;51.61523;955.02;;;;
2020/07/24 13:20:51;;;;;;;2.8;1.2;;;;;;;23.54;52.71582;955.0033;;;;
2020/07/24 13:23:16;;;;;;;3.9;1.1;;;;;;;23.52;54.8584;954.9836;;;;
2020/07/24 13:25:42;;;;;;;4.3;1.3;;;;;;;23.4;51.5498;954.9592;;;;
2020/07/24 13:28:07;;;;;;;4;1.4;;;;;;;23.55;52.11328;954.9073;;;;
2020/07/24 13:30:34;;;;;;;3.3;1.4;;;;;;;23.65;53.7832;954.8137;;;;
2020/07/24 13:32:59;;;;;;;2.9;1.3;;;;;;;23.78;50.7041;954.8312;;;;
2020/07/24 13:35:25;;;;;;;3.5;1.1;;;;;;;23.76;49.20703;954.7706;;;;
2020/07/24 13:37:50;;;;;;;4;1.5;;;;;;;23.88;48.4248;954.8016;;;;
2020/07/24 13:40:15;;;;;;;3.8;1;;;;;;;23.94;49.42969;954.7787;;;;
2020/07/24 13:42:40;;;;;;;3.4;1;;;;;;;24.17;48.63477;954.7918;;;;
2020/07/24 13:45:05;;;;;;;2.9;1;;;;;;;24.26;50.4502;954.7779;;;;
2020/07/24 13:47:30;;;;;;;1.8;0.9;;;;;;;24.3;49.26758;954.7754;;;;
2020/07/24 13:49:55;;;;;;;3.9;1.1;;;;;;;24.34;50.40039;954.7159;;;;
2020/07/24 13:52:20;;;;;;;2.1;1.4;;;;;;;24.2;49.94531;954.7696;;;;
2020/07/24 13:54:45;;;;;;;4.9;1.3;;;;;;;24.51;51.07227;954.7634;;;;
2020/07/24 13:57:10;;;;;;;3.4;1.1;;;;;;;24.77;49.02148;954.8153;;;;
2020/07/24 13:59:35;;;;;;;1.8;1;;;;;;;24.68;49.26172;954.7667;;;;
2020/07/24 14:02:01;;;;;;;2.7;1;;;;;;;24.78;49.09473;954.7654;;;;
2020/07/24 14:04:26;;;;;;;3.9;1.2;;;;;;;24.79;47.59766;954.7619;;;;
2020/07/24 14:06:52;;;;;;;3.3;1.4;;;;;;;24.63;46.83203;954.718;;;;
2020/07/24 14:09:17;;;;;;;2.6;0.9;;;;;;;24.69;47.91992;954.7381;;;;
2020/07/24 14:11:42;;;;;;;1.3;0.8;;;;;;;24.94;48.01855;954.7405;;;;
2020/07/24 14:14:07;;;;;;;3.7;1.2;;;;;;;24.75;45.8457;954.7518;;;;
2020/07/24 14:16:32;;;;;;;4;0.9;;;;;;;24.89;46.53906;954.745;;;;
2020/07/24 14:18:57;;;;;;;1.6;0.9;;;;;;;25.18;46.92578;954.7628;;;;
2020/07/24 14:21:22;;;;;;;2.1;1;;;;;;;25.11;46.66797;954.6889;;;;
2020/07/24 14:23:47;;;;;;;2.5;0.9;;;;;;;25.12;46.77734;954.675;;;;
2020/07/24 14:26:13;;;;;;;3;0.9;;;;;;;25.14;45.3623;954.7589;;;;
2020/07/24 14:28:38;;;;;;;3.4;1;;;;;;;25.25;46.91992;954.7803;;;;
2020/07/24 14:31:03;;;;;;;2.2;1;;;;;;;25.38;45.42285;954.8177;;;;
2020/07/24 14:33:28;;;;;;;2;0.8;;;;;;;25.27;44.16211;954.8212;;;;
2020/07/24 14:35:53;;;;;;;1.5;0.9;;;;;;;25.18;44.89063;954.8119;;;;
2020/07/24 14:38:18;;;;;;;2;0.9;;;;;;;25.16;45.69824;954.847;;;;
2020/07/24 14:40:43;;;;;;;4.6;0.9;;;;;;;25.14;45.84961;954.8706;;;;
2020/07/24 14:43:08;;;;;;;2.8;0.9;;;;;;;25.15;45.61426;954.9728;;;;
2020/07/24 14:45:33;;;;;;;3;1.1;;;;;;;24.2;51.00195;954.9972;;;;